Time;durP1;ratioP1;P1;durP2;ratioP2;P2;SDS_P1;SDS_P2;PMS_P1;PMS_P2;Temp;Humidity;BMP_temperature;BMP_pressure;BME280_temperature;BME280_humidity;BME280_pressure;Samples;Min_cycle;Max_cycle;Signal;HPM_P1;HPM_P2
2021/11/27 00:02:21;;;;;;;31.88;28.92;;;16.40;99.90;;;;;;5052741;28;20033;-74
2021/11/27 00:04:48;;;;;;;32.42;29.08;;;16.40;99.90;;;;;;5051960;28;20071;-73
2021/11/27 00:07:16;;;;;;;35.67;28.98;;;16.40;99.90;;;;;;5051906;28;20064;-74
2021/11/27 00:09:43;;;;;;;31.00;27.88;;;16.50;99.90;;;;;;5052040;28;20397;-73
2021/11/27 00:12:11;;;;;;;30.92;27.85;;;16.80;99.90;;;;;;5053392;28;20021;-74
2021/11/27 00:14:38;;;;;;;32.13;28.85;;;16.90;99.90;;;;;;5053532;28;20043;-75
2021/11/27 00:17:05;;;;;;;29.75;26.92;;;17.00;99.90;;;;;;5053575;28;20060;-75
2021/11/27 00:19:33;;;;;;;32.03;28.98;;;17.20;99.90;;;;;;5051567;28;20041;-74
2021/11/27 00:22:00;;;;;;;27.08;24.48;;;17.40;99.90;;;;;;5052120;28;20078;-75
2021/11/27 00:24:28;;;;;;;27.42;24.52;;;17.30;99.90;;;;;;5053464;28;20013;-75
2021/11/27 00:26:55;;;;;;;27.13;23.63;;;17.30;99.90;;;;;;5051555;28;20033;-75
2021/11/27 00:29:23;;;;;;;26.10;23.45;;;17.30;99.90;;;;;;5039477;28;20036;-75
2021/11/27 00:31:51;;;;;;;23.88;21.40;;;17.30;99.90;;;;;;5055975;28;20028;-75
2021/11/27 00:34:18;;;;;;;24.38;22.08;;;17.20;99.90;;;;;;5055581;28;20035;-75
2021/11/27 00:36:47;;;;;;;28.33;21.67;;;17.20;99.90;;;;;;5057101;28;20032;-75
2021/11/27 00:39:14;;;;;;;20.73;18.63;;;17.30;99.90;;;;;;5055352;28;20025;-75
2021/11/27 00:41:42;;;;;;;22.00;18.75;;;17.20;99.90;;;;;;5055261;28;20045;-74
2021/11/27 00:44:10;;;;;;;23.27;18.48;;;17.30;99.90;;;;;;5056260;28;20029;-75
2021/11/27 00:46:37;;;;;;;21.02;18.23;;;17.30;99.90;;;;;;5057288;28;20021;-72
2021/11/27 00:49:05;;;;;;;22.10;19.80;;;17.40;99.90;;;;;;5056786;28;20013;-72
2021/11/27 00:51:33;;;;;;;21.25;19.10;;;17.30;99.90;;;;;;5056673;28;20181;-71
2021/11/27 00:54:03;;;;;;;23.45;18.17;;;17.30;99.90;;;;;;5056352;28;20029;-71
2021/11/27 00:56:30;;;;;;;29.10;19.67;;;17.30;99.90;;;;;;5055898;28;20025;-72
2021/11/27 00:58:58;;;;;;;20.35;18.25;;;17.20;99.90;;;;;;5056136;28;20432;-73
2021/11/27 01:01:28;;;;;;;21.02;18.83;;;17.10;99.90;;;;;;5055965;28;20052;-72
2021/11/27 01:03:56;;;;;;;20.42;18.42;;;17.10;99.90;;;;;;5054509;28;20021;-72
2021/11/27 01:06:26;;;;;;;22.25;18.35;;;17.30;99.90;;;;;;5054866;28;20032;-73
2021/11/27 01:08:58;;;;;;;19.42;17.70;;;17.40;99.90;;;;;;5055056;28;20406;-73
2021/11/27 01:11:33;;;;;;;18.58;16.83;;;17.50;99.90;;;;;;5054809;28;20145;-73
2021/11/27 01:14:06;;;;;;;20.15;15.90;;;17.60;99.90;;;;;;5054563;28;20025;-72
2021/11/27 01:16:37;;;;;;;17.55;15.75;;;17.70;99.90;;;;;;5056190;28;20115;-72
2021/11/27 01:19:05;;;;;;;18.05;16.27;;;17.80;99.90;;;;;;5054654;28;20112;-73
2021/11/27 01:21:35;;;;;;;16.98;14.88;;;17.70;99.90;;;;;;5055874;28;20031;-73
2021/11/27 01:24:05;;;;;;;20.15;17.10;;;17.60;99.90;;;;;;5055900;28;20048;-73
2021/11/27 01:26:39;;;;;;;18.90;16.88;;;17.60;99.90;;;;;;5055798;28;20025;-73
2021/11/27 01:29:07;;;;;;;22.75;18.25;;;17.40;99.90;;;;;;5054589;28;20053;-72
2021/11/27 01:31:37;;;;;;;23.08;19.95;;;17.10;99.90;;;;;;5055339;28;20021;-72
2021/11/27 01:34:08;;;;;;;24.38;21.90;;;17.10;99.90;;;;;;5055525;28;20036;-72
2021/11/27 01:36:36;;;;;;;23.85;21.45;;;17.10;99.90;;;;;;5054435;28;20539;-73
2021/11/27 01:39:05;;;;;;;23.38;20.92;;;17.00;99.90;;;;;;5055725;28;20040;-72
2021/11/27 01:41:34;;;;;;;23.50;20.92;;;16.80;99.90;;;;;;5054043;28;20069;-73
2021/11/27 01:44:02;;;;;;;23.15;20.80;;;16.80;99.90;;;;;;5055462;28;20096;-73
2021/11/27 01:46:31;;;;;;;23.77;21.05;;;16.90;99.90;;;;;;5055591;28;20017;-74
2021/11/27 01:48:59;;;;;;;23.50;19.02;;;17.10;99.90;;;;;;5054371;28;20024;-73
2021/11/27 01:51:27;;;;;;;23.23;19.15;;;17.20;99.90;;;;;;5055402;28;20028;-73
2021/11/27 01:54:07;;;;;;;21.63;18.38;;;17.50;99.90;;;;;;5054379;28;20029;-73
2021/11/27 01:56:47;;;;;;;21.42;19.13;;;17.70;99.90;;;;;;5055521;28;20070;-71
2021/11/27 01:59:15;;;;;;;24.02;17.98;;;17.80;99.90;;;;;;5052993;28;20032;-73
2021/11/27 02:01:43;;;;;;;25.90;22.05;;;17.70;99.90;;;;;;5054286;28;20494;-73
2021/11/27 02:04:12;;;;;;;25.13;20.77;;;17.30;99.90;;;;;;5053239;28;20053;-72
2021/11/27 02:06:43;;;;;;;27.00;23.65;;;17.10;99.90;;;;;;5055029;28;20024;-73
2021/11/27 02:09:23;;;;;;;25.58;22.00;;;17.10;99.90;;;;;;5053972;28;20025;-72
2021/11/27 02:11:52;;;;;;;29.85;23.40;;;17.20;99.90;;;;;;5054894;28;20021;-73
2021/11/27 02:14:20;;;;;;;30.80;23.73;;;17.30;99.90;;;;;;5055176;28;20064;-74
2021/11/27 02:16:49;;;;;;;26.60;21.73;;;17.40;99.90;;;;;;5054616;28;20043;-73
2021/11/27 02:19:17;;;;;;;27.27;20.85;;;17.40;99.90;;;;;;5052889;28;20394;-74
2021/11/27 02:21:46;;;;;;;23.33;20.27;;;17.40;99.90;;;;;;5054711;28;20021;-72
2021/11/27 02:24:15;;;;;;;25.85;20.17;;;17.30;99.90;;;;;;5053571;28;20487;-73
2021/11/27 02:26:45;;;;;;;21.63;19.30;;;17.20;99.90;;;;;;5053232;28;20029;-73
2021/11/27 02:29:20;;;;;;;29.25;20.25;;;17.20;99.90;;;;;;5055711;28;20107;-74
2021/11/27 02:31:48;;;;;;;27.85;20.65;;;17.10;99.90;;;;;;5053428;28;20119;-73
2021/11/27 02:34:19;;;;;;;31.67;20.60;;;17.20;99.90;;;;;;5053440;28;20060;-73
2021/11/27 02:36:51;;;;;;;24.83;19.45;;;17.10;99.90;;;;;;5054618;28;20068;-73
2021/11/27 02:39:19;;;;;;;22.70;19.40;;;17.20;99.90;;;;;;5054838;28;20079;-72
2021/11/27 02:41:49;;;;;;;27.75;19.92;;;17.20;99.90;;;;;;5053999;28;20040;-73
2021/11/27 02:44:16;;;;;;;27.20;18.63;;;17.30;99.90;;;;;;5054380;28;20047;-71
2021/11/27 02:46:44;;;;;;;26.98;20.17;;;17.40;99.90;;;;;;5052740;28;20096;-72
2021/11/27 02:49:11;;;;;;;28.08;18.92;;;17.50;99.90;;;;;;5054514;28;20131;-74
2021/11/27 02:51:39;;;;;;;22.30;18.98;;;17.60;99.90;;;;;;5052396;28;20036;-73
2021/11/27 02:54:06;;;;;;;31.90;20.40;;;17.60;99.90;;;;;;5054216;28;20017;-72
2021/11/27 02:56:37;;;;;;;30.27;20.75;;;17.40;99.90;;;;;;5054057;28;20029;-72
2021/11/27 02:59:30;;;;;;;;;;;17.40;99.90;;;;;;5054685;28;20025;-73
2021/11/27 03:02:00;;;;;;;27.95;20.75;;;17.50;99.90;;;;;;5051950;28;19909;-73
2021/11/27 03:04:36;;;;;;;30.25;19.92;;;17.70;99.90;;;;;;5052752;28;20028;-73
2021/11/27 03:07:04;;;;;;;34.25;19.40;;;17.80;99.90;;;;;;5054070;28;20031;-72
2021/11/27 03:09:32;;;;;;;27.05;17.92;;;17.70;99.90;;;;;;5054491;28;20021;-73
2021/11/27 03:12:02;;;;;;;27.40;17.40;;;17.60;99.90;;;;;;5052530;28;20120;-74
2021/11/27 03:14:29;;;;;;;30.67;17.92;;;17.50;99.90;;;;;;5052493;28;20505;-73
2021/11/27 03:16:58;;;;;;;32.08;19.02;;;17.60;99.90;;;;;;5053879;28;20017;-72
2021/11/27 03:19:28;;;;;;;29.83;18.25;;;17.40;99.90;;;;;;5053602;28;20024;-73
2021/11/27 03:21:56;;;;;;;28.50;17.60;;;17.50;99.90;;;;;;5052202;28;20032;-73
2021/11/27 03:24:24;;;;;;;30.67;18.50;;;17.70;99.90;;;;;;5053881;28;20021;-74
2021/11/27 03:26:51;;;;;;;27.85;17.75;;;17.90;99.90;;;;;;5052360;28;20108;-75
2021/11/27 03:29:19;;;;;;;26.85;16.33;;;18.10;99.90;;;;;;5054094;28;20032;-74
2021/11/27 03:31:47;;;;;;;22.25;15.65;;;18.20;99.90;;;;;;5053612;28;20074;-73
2021/11/27 03:34:14;;;;;;;29.00;15.60;;;18.30;99.90;;;;;;5053783;28;20481;-75
2021/11/27 03:36:42;;;;;;;24.48;15.45;;;18.40;99.90;;;;;;5054578;28;20025;-75
2021/11/27 03:39:11;;;;;;;23.50;15.15;;;18.40;99.90;;;;;;5053345;28;20067;-76
2021/11/27 03:41:38;;;;;;;28.75;15.48;;;18.60;99.90;;;;;;5053612;28;20086;-74
2021/11/27 03:44:06;;;;;;;19.95;14.05;;;18.60;99.90;;;;;;5053547;28;20052;-73
2021/11/27 03:46:33;;;;;;;20.65;13.80;;;18.60;99.90;;;;;;5052936;28;20063;-73
2021/11/27 03:49:01;;;;;;;24.92;14.38;;;18.50;99.90;;;;;;5053705;28;20474;-73
2021/11/27 03:51:28;;;;;;;23.05;13.80;;;18.50;99.90;;;;;;5053914;28;20370;-72
2021/11/27 03:53:56;;;;;;;21.73;13.00;;;18.60;99.90;;;;;;5053769;28;20025;-73
2021/11/27 03:56:29;;;;;;;22.67;11.90;;;18.70;99.90;;;;;;5052147;28;20033;-75
2021/11/27 03:59:03;;;;;;;19.35;11.43;;;18.50;99.90;;;;;;5052213;28;20029;-75
2021/11/27 04:01:31;;;;;;;21.65;11.50;;;18.50;99.90;;;;;;5052342;28;20040;-74
2021/11/27 04:04:00;;;;;;;18.13;11.52;;;18.30;99.90;;;;;;5055660;28;20561;-74
2021/11/27 04:06:31;;;;;;;21.77;12.25;;;18.30;99.90;;;;;;5057888;28;20032;-75
2021/11/27 04:09:00;;;;;;;17.48;10.50;;;18.70;99.90;;;;;;5056293;28;20051;-72
2021/11/27 04:11:28;;;;;;;16.95;11.40;;;18.80;99.90;;;;;;5057783;28;20021;-73
2021/11/27 04:13:55;;;;;;;21.42;11.45;;;18.90;99.90;;;;;;5056457;28;20032;-73
2021/11/27 04:16:23;;;;;;;17.52;10.95;;;19.00;99.90;;;;;;5057448;28;20115;-73
2021/11/27 04:18:52;;;;;;;18.23;10.07;;;19.20;99.90;;;;;;5057500;28;20017;-73
2021/11/27 04:21:21;;;;;;;19.60;10.43;;;19.00;99.90;;;;;;5057523;28;20074;-73
2021/11/27 04:23:49;;;;;;;20.02;10.48;;;19.20;99.90;;;;;;5057354;28;20025;-74
2021/11/27 04:26:18;;;;;;;21.67;10.43;;;19.20;99.90;;;;;;5057266;28;20017;-73
2021/11/27 04:28:47;;;;;;;19.08;9.98;;;19.20;99.90;;;;;;5055881;28;20017;-74
2021/11/27 04:31:18;;;;;;;19.58;10.35;;;19.30;99.90;;;;;;5057516;28;20032;-74
2021/11/27 04:33:47;;;;;;;25.35;11.05;;;19.30;99.90;;;;;;5057219;28;20033;-72
2021/11/27 04:36:15;;;;;;;20.38;9.95;;;19.00;99.90;;;;;;5055921;28;20032;-73
2021/11/27 04:38:43;;;;;;;23.98;10.68;;;18.80;99.90;;;;;;5057251;28;20025;-72
2021/11/27 04:41:10;;;;;;;17.80;10.52;;;18.60;99.90;;;;;;5056715;28;20040;-71
2021/11/27 04:43:37;;;;;;;28.80;11.85;;;18.40;99.90;;;;;;5056510;28;20600;-71
2021/11/27 04:46:05;;;;;;;17.50;10.68;;;18.30;99.90;;;;;;5056682;28;20489;-73
2021/11/27 04:48:32;;;;;;;26.52;10.95;;;18.50;99.90;;;;;;5055047;28;20021;-74
2021/11/27 04:51:00;;;;;;;18.63;9.90;;;18.60;99.90;;;;;;5055099;28;20057;-73
2021/11/27 04:53:28;;;;;;;19.90;9.70;;;18.70;99.90;;;;;;5055169;28;20033;-73
2021/11/27 04:55:56;;;;;;;17.65;9.23;;;18.70;99.90;;;;;;5055657;28;20086;-73
2021/11/27 04:58:24;;;;;;;20.27;9.80;;;18.90;99.90;;;;;;5056984;28;20061;-74
2021/11/27 05:00:54;;;;;;;16.23;9.50;;;18.70;99.90;;;;;;5055294;28;20025;-73
2021/11/27 05:03:22;;;;;;;15.50;9.07;;;18.50;99.90;;;;;;5056814;28;20071;-73
2021/11/27 05:05:50;;;;;;;17.10;8.98;;;18.50;99.90;;;;;;5055126;28;20433;-74
2021/11/27 05:08:17;;;;;;;19.95;10.10;;;18.60;99.90;;;;;;5056522;28;20017;-73
2021/11/27 05:10:46;;;;;;;21.63;9.45;;;18.60;99.90;;;;;;5055121;28;20029;-73
2021/11/27 05:13:14;;;;;;;20.70;9.38;;;18.30;99.90;;;;;;5054564;28;20037;-73
2021/11/27 05:15:41;;;;;;;18.02;10.55;;;18.20;99.90;;;;;;5054750;28;20028;-74
2021/11/27 05:18:09;;;;;;;18.77;10.73;;;18.20;99.90;;;;;;5054850;28;20528;-74
2021/11/27 05:20:36;;;;;;;23.17;10.52;;;18.20;99.90;;;;;;5055844;28;20025;-72
2021/11/27 05:23:06;;;;;;;22.60;11.00;;;18.30;99.90;;;;;;5054814;28;20048;-75
2021/11/27 05:25:34;;;;;;;25.92;11.38;;;18.50;99.90;;;;;;5056077;28;20052;-74
2021/11/27 05:28:01;;;;;;;21.48;10.25;;;18.50;99.90;;;;;;5055939;28;20032;-73
2021/11/27 05:30:29;;;;;;;18.60;10.63;;;18.30;99.90;;;;;;5056126;28;20037;-73
2021/11/27 05:35:27;;;;;;;19.52;11.13;;;18.20;99.90;;;;;;5055857;28;20385;-74
2021/11/27 05:37:55;;;;;;;23.40;11.55;;;18.10;99.90;;;;;;5056002;28;20036;-74
2021/11/27 05:40:22;;;;;;;18.70;11.57;;;18.10;99.90;;;;;;5055836;28;20025;-74
2021/11/27 05:42:50;;;;;;;24.20;12.18;;;17.90;99.90;;;;;;5054702;28;20028;-72
2021/11/27 05:45:19;;;;;;;24.50;11.82;;;18.10;99.90;;;;;;5055677;28;20066;-74
2021/11/27 05:47:46;;;;;;;17.00;9.93;;;18.20;99.90;;;;;;5055393;28;20032;-74
2021/11/27 05:50:14;;;;;;;17.30;10.30;;;18.20;99.90;;;;;;5054154;28;20118;-73
2021/11/27 05:52:41;;;;;;;17.27;11.55;;;18.10;99.90;;;;;;5055606;28;20043;-73
2021/11/27 05:55:09;;;;;;;19.08;11.15;;;18.10;99.90;;;;;;5053966;28;20032;-74
2021/11/27 05:57:36;;;;;;;23.25;12.05;;;17.90;99.90;;;;;;5053763;28;20032;-72
2021/11/27 06:00:06;;;;;;;20.48;11.88;;;17.70;99.90;;;;;;5055023;28;20386;-73
2021/11/27 06:02:33;;;;;;;19.33;11.32;;;17.50;99.90;;;;;;5053547;28;20029;-73
2021/11/27 06:05:01;;;;;;;18.45;12.50;;;17.40;99.90;;;;;;5054208;28;20112;-75
2021/11/27 06:07:28;;;;;;;14.80;10.68;;;17.60;99.90;;;;;;5053984;28;20108;-76
2021/11/27 06:09:55;;;;;;;16.85;10.60;;;17.60;99.90;;;;;;5055896;28;20025;-77
2021/11/27 06:12:23;;;;;;;15.93;11.27;;;17.70;99.90;;;;;;5054912;28;20033;-75
2021/11/27 06:14:50;;;;;;;18.02;10.77;;;17.70;99.90;;;;;;5055283;28;20040;-75
2021/11/27 06:17:17;;;;;;;19.45;10.90;;;17.70;99.90;;;;;;5055212;28;20104;-74
2021/11/27 06:19:45;;;;;;;20.85;12.55;;;17.50;99.90;;;;;;5055146;28;20065;-72
2021/11/27 06:22:12;;;;;;;19.80;13.73;;;17.30;99.90;;;;;;5055021;28;20029;-74
2021/11/27 06:24:39;;;;;;;20.42;15.88;;;17.20;99.90;;;;;;5053348;28;20052;-74
2021/11/27 06:27:07;;;;;;;18.33;16.13;;;17.00;99.90;;;;;;5053205;28;20021;-73
2021/11/27 06:29:34;;;;;;;20.83;17.63;;;16.80;99.90;;;;;;5054968;28;20022;-71
2021/11/27 06:32:08;;;;;;;22.45;16.92;;;16.70;99.90;;;;;;5054738;28;20413;-73
2021/11/27 06:34:36;;;;;;;19.33;17.45;;;16.70;99.90;;;;;;5054621;28;20100;-73
2021/11/27 06:37:04;;;;;;;23.80;17.40;;;16.60;99.90;;;;;;5053197;28;20033;-73
2021/11/27 06:39:31;;;;;;;24.00;18.75;;;16.60;99.90;;;;;;5054829;28;20021;-74
2021/11/27 06:41:58;;;;;;;21.98;19.63;;;16.60;99.90;;;;;;5054499;28;20064;-73
2021/11/27 06:44:26;;;;;;;22.40;18.75;;;16.80;99.90;;;;;;5053412;28;20047;-74
2021/11/27 06:46:53;;;;;;;20.73;17.42;;;16.90;99.90;;;;;;5053029;28;20409;-72
2021/11/27 06:49:20;;;;;;;22.45;16.67;;;16.90;99.90;;;;;;5053257;28;20025;-73
2021/11/27 06:51:48;;;;;;;20.85;16.70;;;16.90;99.90;;;;;;5054242;28;20051;-73
2021/11/27 06:54:15;;;;;;;20.73;16.63;;;16.80;99.90;;;;;;5054656;28;20068;-74
2021/11/27 06:56:42;;;;;;;20.83;16.48;;;16.90;99.90;;;;;;5053098;28;20009;-73
2021/11/27 06:59:10;;;;;;;21.60;15.88;;;16.90;99.90;;;;;;5053168;28;20482;-73
2021/11/27 07:01:37;;;;;;;21.52;16.10;;;16.80;99.90;;;;;;5054466;28;20021;-72
2021/11/27 07:04:04;;;;;;;22.15;15.30;;;16.80;99.90;;;;;;5054433;28;20096;-74
2021/11/27 07:06:32;;;;;;;25.92;15.30;;;16.80;99.90;;;;;;5053683;28;20492;-74
2021/11/27 07:08:59;;;;;;;17.25;15.50;;;16.80;99.90;;;;;;5053920;28;20520;-74
2021/11/27 07:11:27;;;;;;;18.42;15.95;;;16.90;99.90;;;;;;5052827;28;20054;-73
2021/11/27 07:13:54;;;;;;;19.35;16.15;;;16.90;99.90;;;;;;5052561;28;20482;-74
2021/11/27 07:16:21;;;;;;;22.58;15.98;;;16.90;99.90;;;;;;5054666;28;20025;-72
2021/11/27 07:18:48;;;;;;;24.75;16.90;;;16.80;99.90;;;;;;5052532;28;20037;-74
2021/11/27 07:21:16;;;;;;;22.50;14.75;;;16.80;99.90;;;;;;5052052;28;20025;-74
2021/11/27 07:23:43;;;;;;;18.88;14.93;;;16.80;99.90;;;;;;5053948;28;20059;-73
2021/11/27 07:26:10;;;;;;;20.77;15.88;;;16.70;99.90;;;;;;5054323;28;20024;-74
2021/11/27 07:28:38;;;;;;;25.33;15.75;;;16.70;99.90;;;;;;5053777;28;20017;-72
2021/11/27 07:31:05;;;;;;;22.02;15.98;;;16.60;99.90;;;;;;5053674;28;20481;-73
2021/11/27 07:33:32;;;;;;;18.58;15.50;;;16.50;99.90;;;;;;5053812;28;20021;-73
2021/11/27 07:36:00;;;;;;;18.13;15.57;;;16.30;99.90;;;;;;5052326;28;20409;-73
2021/11/27 07:38:27;;;;;;;19.42;16.25;;;16.30;99.90;;;;;;5053748;28;20044;-74
2021/11/27 07:40:54;;;;;;;22.55;16.73;;;16.30;99.90;;;;;;5053437;28;20095;-74
2021/11/27 07:43:22;;;;;;;20.80;17.17;;;16.20;99.90;;;;;;5053955;28;20543;-72
2021/11/27 07:45:49;;;;;;;20.67;17.38;;;16.20;99.90;;;;;;5053803;28;20047;-72
2021/11/27 07:48:17;;;;;;;21.50;17.52;;;16.20;99.90;;;;;;5053878;28;20029;-74
2021/11/27 07:50:44;;;;;;;22.50;16.85;;;16.20;99.90;;;;;;5052417;28;20432;-73
2021/11/27 07:53:11;;;;;;;21.33;16.38;;;16.20;99.90;;;;;;5052481;28;20049;-73
2021/11/27 07:55:39;;;;;;;19.77;15.68;;;16.20;99.90;;;;;;5052405;28;20017;-74
2021/11/27 07:58:06;;;;;;;21.05;15.85;;;16.20;99.90;;;;;;5052410;28;20028;-74
2021/11/27 08:00:33;;;;;;;20.98;15.00;;;16.20;99.90;;;;;;5053566;28;20052;-73
2021/11/27 08:03:01;;;;;;;18.65;15.18;;;16.20;99.90;;;;;;5053655;28;20021;-74
2021/11/27 08:05:28;;;;;;;22.45;15.70;;;16.20;99.90;;;;;;5052221;28;20178;-73
2021/11/27 08:07:55;;;;;;;20.25;15.68;;;16.20;99.90;;;;;;5052614;28;20028;-73
2021/11/27 08:10:23;;;;;;;20.50;16.27;;;16.20;99.90;;;;;;5051985;28;20021;-74
2021/11/27 08:12:50;;;;;;;22.42;15.70;;;16.20;99.90;;;;;;5053693;28;20021;-74
2021/11/27 08:15:17;;;;;;;19.00;15.35;;;16.20;99.90;;;;;;5052158;28;20025;-73
2021/11/27 08:17:45;;;;;;;16.98;14.50;;;16.20;99.90;;;;;;5052067;28;20478;-75
2021/11/27 08:20:12;;;;;;;15.48;13.85;;;16.20;99.90;;;;;;5053587;28;20025;-74
2021/11/27 08:22:40;;;;;;;16.45;14.85;;;16.20;99.90;;;;;;5052049;28;20032;-74
2021/11/27 08:25:08;;;;;;;20.25;14.35;;;16.10;99.90;;;;;;5052026;28;20025;-74
2021/11/27 08:27:36;;;;;;;20.58;14.02;;;16.20;99.90;;;;;;5053147;28;20021;-74
2021/11/27 08:30:09;;;;;;;21.85;15.23;;;16.10;99.90;;;;;;5051835;28;20124;-74
2021/11/27 08:32:37;;;;;;;16.20;14.50;;;16.10;99.90;;;;;;5053501;28;20028;-75
2021/11/27 08:35:06;;;;;;;17.48;15.50;;;16.10;99.90;;;;;;5051743;28;20028;-74
2021/11/27 08:37:34;;;;;;;21.23;15.65;;;16.10;99.90;;;;;;5053679;28;20389;-74
2021/11/27 08:40:02;;;;;;;21.42;15.85;;;16.10;99.90;;;;;;5054089;28;20048;-74
2021/11/27 08:42:30;;;;;;;19.42;16.52;;;16.10;99.90;;;;;;5055836;28;20513;-75
2021/11/27 08:44:57;;;;;;;27.45;15.90;;;16.20;99.90;;;;;;5052941;28;20025;-75
2021/11/27 08:47:24;;;;;;;19.25;16.58;;;16.10;99.90;;;;;;5053872;28;20014;-75
2021/11/27 08:49:56;;;;;;;18.58;16.67;;;16.10;99.90;;;;;;5056583;28;20021;-74
2021/11/27 08:52:23;;;;;;;19.77;16.25;;;16.10;99.90;;;;;;5055673;28;20035;-76
2021/11/27 08:54:50;;;;;;;22.58;15.45;;;16.20;99.90;;;;;;5057700;28;20025;-74
2021/11/27 08:57:18;;;;;;;23.90;15.85;;;16.10;99.90;;;;;;5055424;28;20025;-72
2021/11/27 08:59:45;;;;;;;21.85;14.98;;;16.10;99.90;;;;;;5055230;28;20052;-70
2021/11/27 09:02:13;;;;;;;22.90;15.85;;;16.10;99.90;;;;;;5055290;28;20033;-75
2021/11/27 09:04:40;;;;;;;21.58;14.48;;;16.10;99.90;;;;;;5056769;28;20021;-71
2021/11/27 09:07:08;;;;;;;21.27;14.82;;;16.10;99.90;;;;;;5056821;28;20017;-72
2021/11/27 09:09:36;;;;;;;21.33;15.77;;;16.10;99.90;;;;;;5054962;28;20493;-72
2021/11/27 09:12:05;;;;;;;24.45;15.48;;;16.10;99.90;;;;;;5055472;28;20402;-74
2021/11/27 09:14:33;;;;;;;19.73;15.95;;;16.00;99.90;;;;;;5054775;28;20021;-74
2021/11/27 09:17:01;;;;;;;24.45;15.75;;;16.10;99.90;;;;;;5056241;28;20025;-74
2021/11/27 09:19:28;;;;;;;18.17;15.77;;;16.00;99.90;;;;;;5056341;28;20033;-74
2021/11/27 09:21:56;;;;;;;18.35;16.42;;;15.90;99.90;;;;;;5055039;28;20470;-72
2021/11/27 09:24:23;;;;;;;21.88;15.30;;;15.90;99.90;;;;;;5055888;28;20025;-74
2021/11/27 09:26:51;;;;;;;20.20;15.93;;;15.90;99.90;;;;;;5054218;28;20021;-72
2021/11/27 09:29:19;;;;;;;17.50;15.25;;;15.90;99.90;;;;;;5054768;28;20033;-73
2021/11/27 09:31:47;;;;;;;17.52;15.65;;;15.90;99.90;;;;;;5054701;28;20398;-72
2021/11/27 09:34:15;;;;;;;17.52;15.10;;;15.80;99.90;;;;;;5054355;28;20123;-73
2021/11/27 09:36:45;;;;;;;22.90;16.13;;;15.90;99.90;;;;;;5054299;28;20032;-74
2021/11/27 09:39:14;;;;;;;22.90;16.25;;;15.80;99.90;;;;;;5054385;28;20065;-73
2021/11/27 09:41:43;;;;;;;25.15;16.65;;;15.80;99.90;;;;;;5055199;28;20041;-73
2021/11/27 09:44:13;;;;;;;21.33;16.58;;;15.80;99.90;;;;;;5054174;28;20025;-73
2021/11/27 09:46:42;;;;;;;19.45;16.70;;;15.80;99.90;;;;;;5055390;28;20025;-73
2021/11/27 09:49:17;;;;;;;30.42;17.17;;;15.80;99.90;;;;;;5056173;28;20025;-73
2021/11/27 09:51:46;;;;;;;21.90;16.33;;;15.80;99.90;;;;;;5056298;28;20021;-74
2021/11/27 09:54:17;;;;;;;25.65;16.83;;;15.80;99.90;;;;;;5055783;28;20025;-74
2021/11/27 09:56:46;;;;;;;32.38;17.45;;;15.90;99.90;;;;;;5054180;28;20453;-73
2021/11/27 09:59:13;;;;;;;30.00;17.45;;;15.90;99.90;;;;;;5054136;28;20055;-73
2021/11/27 10:01:45;;;;;;;21.08;17.23;;;15.90;99.90;;;;;;5053844;28;20040;-74
2021/11/27 10:04:14;;;;;;;22.23;16.75;;;15.90;99.90;;;;;;5055367;28;20477;-73
2021/11/27 10:06:48;;;;;;;22.13;17.05;;;15.90;99.90;;;;;;5054051;28;20112;-72
2021/11/27 10:09:18;;;;;;;18.25;16.15;;;15.90;99.90;;;;;;5053955;28;20018;-73
2021/11/27 10:11:47;;;;;;;18.95;16.23;;;15.90;99.90;;;;;;5054043;28;20116;-73
2021/11/27 10:14:15;;;;;;;17.95;16.00;;;15.90;99.90;;;;;;5055277;28;20455;-73
2021/11/27 10:16:58;;;;;;;22.77;15.75;;;15.80;99.90;;;;;;5053885;28;20036;-73
2021/11/27 10:19:44;;;;;;;20.08;16.55;;;15.90;99.90;;;;;;5055076;28;20423;-74
2021/11/27 10:22:15;;;;;;;21.77;17.15;;;15.90;99.90;;;;;;5055063;28;20021;-73
2021/11/27 10:24:46;;;;;;;23.05;17.00;;;16.00;99.90;;;;;;5054940;28;20024;-74
2021/11/27 10:27:25;;;;;;;18.75;16.45;;;16.00;99.90;;;;;;5055206;28;20036;-73
2021/11/27 10:30:09;;;;;;;26.10;17.10;;;16.00;99.90;;;;;;5053707;28;20029;-73
2021/11/27 10:32:42;;;;;;;21.98;17.80;;;16.00;99.90;;;;;;5054898;28;20108;-72
2021/11/27 10:35:19;;;;;;;22.65;17.00;;;16.00;99.90;;;;;;5053594;28;20025;-74
2021/11/27 10:37:49;;;;;;;26.38;17.38;;;16.00;99.90;;;;;;5053429;28;20089;-73
2021/11/27 10:40:28;;;;;;;20.08;17.75;;;15.90;99.90;;;;;;5055166;28;20027;-73
2021/11/27 10:43:04;;;;;;;21.25;18.63;;;16.00;99.90;;;;;;5054569;28;20029;-73
2021/11/27 10:45:33;;;;;;;23.58;17.88;;;16.00;99.90;;;;;;5053840;28;20074;-73
2021/11/27 10:48:13;;;;;;;25.40;18.25;;;15.90;99.90;;;;;;5054656;28;20074;-73
2021/11/27 10:50:40;;;;;;;22.38;17.98;;;15.90;99.90;;;;;;5054701;28;20045;-73
2021/11/27 10:53:17;;;;;;;23.70;18.20;;;16.00;99.90;;;;;;5053156;28;20021;-73
2021/11/27 10:55:45;;;;;;;29.02;18.48;;;15.90;99.90;;;;;;5054438;28;20028;-72
2021/11/27 10:58:14;;;;;;;26.15;19.25;;;15.90;99.90;;;;;;5054174;28;20017;-74
2021/11/27 11:00:46;;;;;;;26.05;18.98;;;15.90;99.90;;;;;;5052801;28;20025;-73
2021/11/27 11:03:33;;;;;;;30.98;19.80;;;16.00;99.90;;;;;;5054140;28;20028;-72
2021/11/27 11:06:17;;;;;;;22.67;19.08;;;15.90;99.90;;;;;;5054358;28;20017;-73
2021/11/27 11:08:47;;;;;;;23.85;19.23;;;16.00;99.90;;;;;;5054285;28;20021;-73
2021/11/27 11:11:20;;;;;;;30.63;20.40;;;15.90;99.90;;;;;;5053638;28;20116;-73
2021/11/27 11:13:52;;;;;;;27.80;19.95;;;15.90;99.90;;;;;;5052858;28;20104;-73
2021/11/27 11:16:21;;;;;;;28.45;21.20;;;15.90;99.90;;;;;;5053205;28;20028;-74
2021/11/27 11:18:54;;;;;;;32.97;21.52;;;15.90;99.90;;;;;;5054263;28;20474;-73
2021/11/27 11:21:23;;;;;;;27.30;21.88;;;15.90;99.90;;;;;;5054301;28;20107;-72
2021/11/27 11:23:51;;;;;;;30.88;22.85;;;15.90;99.90;;;;;;5054080;28;20108;-74
2021/11/27 11:26:24;;;;;;;32.65;23.13;;;15.80;99.90;;;;;;5052603;28;20028;-72
2021/11/27 11:28:57;;;;;;;33.50;22.60;;;15.80;99.90;;;;;;5053804;28;20060;-72
2021/11/27 11:31:35;;;;;;;33.10;21.98;;;15.80;99.90;;;;;;5053702;28;20044;-73
2021/11/27 11:34:03;;;;;;;31.33;22.33;;;15.80;99.90;;;;;;5052846;28;20029;-73
2021/11/27 11:36:30;;;;;;;31.85;21.88;;;15.80;99.90;;;;;;5052658;28;20106;-74
2021/11/27 11:39:02;;;;;;;34.08;21.83;;;15.80;99.90;;;;;;5052651;28;20082;-73
2021/11/27 11:41:30;;;;;;;26.20;21.85;;;15.80;99.90;;;;;;5052238;28;20056;-73
2021/11/27 11:43:57;;;;;;;30.63;21.92;;;15.80;99.90;;;;;;5053877;28;20446;-71
2021/11/27 11:46:25;;;;;;;29.10;21.98;;;15.80;99.90;;;;;;5052436;28;20055;-73
2021/11/27 11:48:57;;;;;;;29.90;21.77;;;15.80;99.90;;;;;;5053710;28;20493;-73
2021/11/27 11:51:54;;;;;;;24.75;20.70;;;15.90;99.90;;;;;;5053822;28;20029;-73
2021/11/27 11:54:24;;;;;;;33.35;22.30;;;15.80;99.90;;;;;;5053712;28;20037;-73
2021/11/27 11:57:08;;;;;;;32.85;22.13;;;15.80;99.90;;;;;;5053773;28;20384;-72
2021/11/27 11:59:42;;;;;;;30.85;20.23;;;15.80;99.90;;;;;;5053486;28;20489;-72
2021/11/27 12:02:23;;;;;;;31.33;21.65;;;15.80;99.90;;;;;;5052238;28;20120;-73
2021/11/27 12:05:06;;;;;;;27.60;21.95;;;15.80;99.90;;;;;;5052256;28;20021;-73
2021/11/27 12:07:53;;;;;;;27.85;21.60;;;15.80;99.90;;;;;;5052205;28;20028;-72
2021/11/27 12:10:41;;;;;;;36.15;22.15;;;15.80;99.90;;;;;;5051855;28;20029;-71
2021/11/27 12:13:09;;;;;;;24.25;21.25;;;15.90;99.90;;;;;;5053522;28;20055;-72
2021/11/27 12:15:39;;;;;;;30.65;21.13;;;15.80;99.90;;;;;;5053033;28;20535;-72
2021/11/27 12:18:06;;;;;;;27.83;21.65;;;15.90;99.90;;;;;;5053271;28;20100;-71
2021/11/27 12:20:58;;;;;;;22.38;20.00;;;15.80;99.90;;;;;;5052993;28;20422;-72
2021/11/27 12:23:29;;;;;;;30.45;20.60;;;15.80;99.90;;;;;;5054338;28;20028;-72
2021/11/27 12:26:10;;;;;;;27.88;21.30;;;15.80;99.90;;;;;;5055975;28;20028;-71
2021/11/27 12:28:50;;;;;;;31.73;21.95;;;15.80;99.90;;;;;;5055944;28;20117;-71
2021/11/27 12:31:19;;;;;;;22.17;19.55;;;15.80;99.90;;;;;;5057272;28;20033;-72
2021/11/27 12:34:03;;;;;;;24.27;18.73;;;15.90;99.90;;;;;;5057309;28;20036;-74
2021/11/27 12:36:32;;;;;;;32.05;19.42;;;15.90;99.90;;;;;;5055699;28;20486;-73
2021/11/27 12:39:05;;;;;;;21.25;18.40;;;15.80;99.90;;;;;;5057113;28;20428;-71
2021/11/27 12:41:38;;;;;;;22.55;18.63;;;15.90;99.90;;;;;;5056565;28;20041;-72
2021/11/27 12:44:22;;;;;;;24.67;19.73;;;15.90;99.90;;;;;;5055719;28;20025;-72